createdAt,value
2022-11-28T00:00:54.734Z,97.60
2022-11-28T00:05:10.952Z,97.60
2022-11-28T00:09:24.794Z,97.70
2022-11-28T00:13:39.095Z,97.70
2022-11-28T00:17:55.787Z,97.60
2022-11-28T00:22:09.852Z,97.60
2022-11-28T00:26:27.022Z,97.60
2022-11-28T00:30:41.438Z,97.60
2022-11-28T00:34:56.569Z,97.50
2022-11-28T00:39:10.370Z,97.60
2022-11-28T00:43:24.389Z,97.50
2022-11-28T00:47:38.423Z,97.90
2022-11-28T00:51:53.883Z,97.70
2022-11-28T00:56:08.934Z,97.70
2022-11-28T01:00:23.487Z,97.90
2022-11-28T01:04:37.486Z,98.20
2022-11-28T01:08:52.910Z,98.20
2022-11-28T01:13:06.918Z,98.40
2022-11-28T01:17:20.670Z,98.50
2022-11-28T01:21:36.920Z,98.60
2022-11-28T01:25:52.231Z,98.90
2022-11-28T01:30:07.643Z,99.20
2022-11-28T01:34:21.656Z,99.20
2022-11-28T01:38:36.029Z,99.30
2022-11-28T01:42:51.396Z,99.40
2022-11-28T01:47:05.239Z,99.50
2022-11-28T01:51:19.556Z,99.60
2022-11-28T01:55:38.992Z,99.70
2022-11-28T01:59:58.530Z,99.70
2022-11-28T02:04:13.772Z,99.80
2022-11-28T02:08:28.014Z,99.90
2022-11-28T02:12:58.459Z,99.90
2022-11-28T02:17:22.401Z,99.90
2022-11-28T02:21:52.723Z,99.90
2022-11-28T02:26:22.271Z,99.80
2022-11-28T02:30:46.601Z,99.70
2022-11-28T02:35:11.049Z,99.60
2022-11-28T02:39:31.967Z,99.50
2022-11-28T02:43:53.660Z,99.50
2022-11-28T02:48:12.089Z,99.50
2022-11-28T02:52:32.639Z,99.50
2022-11-28T02:56:49.751Z,99.60
2022-11-28T03:01:03.617Z,99.60
2022-11-28T03:05:24.831Z,99.70
2022-11-28T03:10:10.161Z,99.70
2022-11-28T03:14:34.536Z,99.80
2022-11-28T03:19:02.277Z,99.70
2022-11-28T03:23:19.133Z,99.70
2022-11-28T03:27:38.168Z,99.50
2022-11-28T03:31:57.305Z,99.40
2022-11-28T03:36:15.903Z,99.30
2022-11-28T03:40:35.237Z,99.10
2022-11-28T03:44:55.450Z,98.90
2022-11-28T03:49:12.712Z,98.70
2022-11-28T03:53:32.305Z,98.60
2022-11-28T03:57:51.760Z,98.40
2022-11-28T04:02:15.535Z,98.30
2022-11-28T04:06:37.032Z,98.20
2022-11-28T04:10:55.816Z,98.00
2022-11-28T04:15:16.172Z,97.80
2022-11-28T04:19:37.145Z,97.70
2022-11-28T04:23:53.876Z,97.70
2022-11-28T04:28:11.772Z,97.70
2022-11-28T04:32:27.629Z,97.70
2022-11-28T04:36:45.451Z,97.80
2022-11-28T04:41:06.115Z,97.80
2022-11-28T04:45:27.924Z,97.70
2022-11-28T04:49:42.009Z,97.70
2022-11-28T04:54:02.718Z,97.80
2022-11-28T04:58:20.929Z,97.50
2022-11-28T05:02:36.620Z,97.20
2022-11-28T05:06:50.992Z,97.00
2022-11-28T05:11:06.483Z,96.40
2022-11-28T05:15:21.092Z,96.10
2022-11-28T05:19:35.280Z,95.90
2022-11-28T05:23:49.966Z,95.80
2022-11-28T05:28:05.660Z,95.60
2022-11-28T05:32:20.268Z,95.50
2022-11-28T05:36:34.461Z,95.30
2022-11-28T05:40:48.380Z,95.20
2022-11-28T05:45:04.929Z,95.20
2022-11-28T05:49:21.233Z,95.20
2022-11-28T05:53:35.212Z,95.30
2022-11-28T05:57:49.239Z,95.50
2022-11-28T06:02:04.983Z,95.60
2022-11-28T06:06:20.413Z,95.70
2022-11-28T06:10:34.568Z,96.10
2022-11-28T06:14:48.380Z,95.80
2022-11-28T06:19:05.545Z,95.80
2022-11-28T06:23:19.817Z,95.60
2022-11-28T06:27:35.202Z,95.30
2022-11-28T06:31:49.458Z,95.10
2022-11-28T06:36:07.350Z,94.90
2022-11-28T06:40:21.225Z,94.70
2022-11-28T06:44:35.260Z,94.70
2022-11-28T06:48:50.880Z,94.60
2022-11-28T06:53:06.453Z,94.50
2022-11-28T06:57:20.270Z,94.50
2022-11-28T07:01:35.189Z,94.30
2022-11-28T07:05:48.932Z,94.20
2022-11-28T07:10:05.657Z,94.30
2022-11-28T07:14:19.685Z,94.20
2022-11-28T07:18:34.805Z,94.00
2022-11-28T07:22:49.565Z,93.70
2022-11-28T07:27:04.778Z,93.60
2022-11-28T07:31:20.734Z,93.50
2022-11-28T07:35:34.976Z,93.50
2022-11-28T07:39:48.904Z,93.60
2022-11-28T07:44:05.405Z,93.50
2022-11-28T07:48:22.040Z,93.30
2022-11-28T07:52:35.780Z,93.30
2022-11-28T07:57:12.989Z,93.10
2022-11-28T08:01:27.052Z,92.80
2022-11-28T08:05:42.292Z,92.60
2022-11-28T08:09:56.657Z,92.30
2022-11-28T08:14:11.030Z,92.10
2022-11-28T08:18:26.509Z,91.80
2022-11-28T08:22:40.655Z,91.80
2022-11-28T08:26:54.532Z,92.00
2022-11-28T08:31:12.072Z,92.20
2022-11-28T08:35:27.178Z,92.30
2022-11-28T08:39:41.587Z,92.50
2022-11-28T08:43:55.804Z,92.60
2022-11-28T08:48:10.580Z,92.60
2022-11-28T08:52:26.600Z,92.80
2022-11-28T08:56:40.668Z,92.90
2022-11-28T09:00:54.483Z,92.80
2022-11-28T09:05:09.253Z,92.90
2022-11-28T09:09:25.071Z,93.00
2022-11-28T09:13:40.471Z,93.10
2022-11-28T09:17:54.428Z,93.10
2022-11-28T09:22:09.756Z,93.00
2022-11-28T09:26:25.879Z,92.80
2022-11-28T09:30:39.748Z,92.70
2022-11-28T09:34:53.807Z,92.30
2022-11-28T09:39:07.684Z,92.00
2022-11-28T09:43:31.111Z,91.50
2022-11-28T09:47:49.068Z,91.30
2022-11-28T09:52:08.222Z,91.10
2022-11-28T09:56:23.559Z,91.00
2022-11-28T10:01:06.907Z,90.70
2022-11-28T10:05:46.129Z,90.10
2022-11-28T10:10:28.231Z,89.90
2022-11-28T10:15:21.155Z,89.00
2022-11-28T10:20:00.693Z,87.90
2022-11-28T10:24:38.586Z,87.50
2022-11-28T10:29:22.495Z,87.20
2022-11-28T10:34:00.524Z,86.30
2022-11-28T10:38:37.617Z,86.10
2022-11-28T10:43:26.088Z,86.20
2022-11-28T10:48:40.087Z,84.60
2022-11-28T10:53:21.766Z,83.10
2022-11-28T10:58:07.058Z,83.40
2022-11-28T11:02:46.070Z,83.30
2022-11-28T11:07:29.798Z,83.10
2022-11-28T11:12:06.213Z,82.60
2022-11-28T11:16:53.660Z,83.00
2022-11-28T11:21:28.613Z,82.40
2022-11-28T11:26:03.610Z,82.60
2022-11-28T11:30:40.356Z,83.00
2022-11-28T11:35:22.444Z,83.80
2022-11-28T11:39:56.681Z,83.40
2022-11-28T11:44:35.477Z,82.50
2022-11-28T11:49:30.199Z,82.40
2022-11-28T11:54:16.147Z,82.50
2022-11-28T11:58:55.151Z,82.80
2022-11-28T12:03:34.219Z,82.10
2022-11-28T12:08:13.261Z,82.10
2022-11-28T12:12:48.683Z,82.60
2022-11-28T12:17:48.784Z,82.80
2022-11-28T12:22:31.174Z,83.30
2022-11-28T12:27:12.106Z,83.60
2022-11-28T12:31:57.108Z,83.20
2022-11-28T12:36:37.578Z,83.00
2022-11-28T12:41:32.625Z,82.90
2022-11-28T12:46:15.150Z,82.50
2022-11-28T12:50:56.856Z,82.30
2022-11-28T12:55:38.184Z,81.10
2022-11-28T13:00:18.372Z,80.90
2022-11-28T13:05:19.016Z,80.80
2022-11-28T13:10:03.508Z,80.00
2022-11-28T13:14:48.249Z,79.70
2022-11-28T13:19:38.255Z,78.60
2022-11-28T13:24:19.776Z,78.40
2022-11-28T13:29:03.279Z,78.60
2022-11-28T13:33:51.173Z,78.00
2022-11-28T13:38:36.197Z,78.10
2022-11-28T13:43:18.560Z,78.40
2022-11-28T13:47:55.684Z,78.70
2022-11-28T13:52:34.195Z,78.80
2022-11-28T13:57:19.007Z,78.90
2022-11-28T14:01:58.816Z,79.00
2022-11-28T14:06:44.541Z,79.30
2022-11-28T14:11:46.437Z,79.50
2022-11-28T14:16:32.659Z,79.80
2022-11-28T14:21:12.649Z,80.30
2022-11-28T14:25:51.233Z,80.60
2022-11-28T14:30:34.419Z,80.90
2022-11-28T14:35:20.714Z,81.10
2022-11-28T14:39:57.531Z,81.40
2022-11-28T14:44:51.405Z,81.40
2022-11-28T14:49:25.642Z,81.60
2022-11-28T14:54:00.501Z,81.90
2022-11-28T14:58:35.441Z,82.10
2022-11-28T15:03:27.058Z,82.40
2022-11-28T15:08:34.827Z,82.50
2022-11-28T15:13:36.667Z,82.80
2022-11-28T15:18:13.668Z,82.90
2022-11-28T15:22:49.336Z,83.10
2022-11-28T15:27:25.805Z,83.30
2022-11-28T15:32:01.235Z,83.30
2022-11-28T15:36:38.281Z,83.30
2022-11-28T15:41:12.608Z,83.50
2022-11-28T15:45:51.171Z,83.50
2022-11-28T15:50:27.345Z,83.60
2022-11-28T15:55:03.167Z,83.70
2022-11-28T15:59:37.739Z,83.80
2022-11-28T16:04:16.584Z,83.80
2022-11-28T16:08:54.569Z,83.90
2022-11-28T16:13:32.510Z,84.20
2022-11-28T16:18:07.704Z,85.10
2022-11-28T16:22:41.977Z,84.60
2022-11-28T16:27:30.237Z,84.90
2022-11-28T16:32:10.510Z,85.10
2022-11-28T16:36:51.778Z,85.20
2022-11-28T16:41:27.240Z,85.40
2022-11-28T16:46:02.508Z,85.60
2022-11-28T16:50:39.013Z,85.80
2022-11-28T16:55:46.296Z,86.10
2022-11-28T17:00:20.701Z,86.30
2022-11-28T17:04:55.356Z,86.30
2022-11-28T17:09:31.450Z,86.50
2022-11-28T17:14:11.710Z,86.30
2022-11-28T17:18:47.870Z,86.40
2022-11-28T17:23:25.584Z,86.50
2022-11-28T17:28:01.024Z,86.30
2022-11-28T17:32:35.142Z,86.10
2022-11-28T17:37:14.627Z,86.10
2022-11-28T17:41:49.526Z,86.10
2022-11-28T17:46:24.971Z,86.00
2022-11-28T17:50:59.452Z,86.10
2022-11-28T17:55:34.254Z,86.00
2022-11-28T18:00:12.547Z,86.20
2022-11-28T18:04:52.207Z,86.40
2022-11-28T18:09:26.694Z,86.70
2022-11-28T18:14:00.866Z,87.00
2022-11-28T18:18:35.552Z,88.00
2022-11-28T18:23:14.782Z,87.70
2022-11-28T18:27:48.757Z,87.90
2022-11-28T18:32:23.012Z,88.10
2022-11-28T18:37:00.769Z,87.90
2022-11-28T18:41:40.421Z,88.00
2022-11-28T18:46:17.607Z,88.10
2022-11-28T18:50:52.023Z,88.20
2022-11-28T18:55:26.516Z,88.30
2022-11-28T19:00:03.647Z,88.40
2022-11-28T19:04:38.780Z,88.60
2022-11-28T19:09:15.093Z,88.80
2022-11-28T19:13:29.205Z,89.00
2022-11-28T19:17:44.593Z,89.30
2022-11-28T19:22:00.418Z,89.60
2022-11-28T19:26:18.026Z,89.70
2022-11-28T19:30:32.127Z,90.00
2022-11-28T19:34:52.458Z,90.00
2022-11-28T19:39:06.350Z,90.10
2022-11-28T19:43:21.765Z,90.20
2022-11-28T19:47:36.217Z,90.20
2022-11-28T19:51:52.454Z,90.30
2022-11-28T19:56:09.075Z,90.30
2022-11-28T20:00:24.096Z,90.30
2022-11-28T20:04:38.516Z,90.40
2022-11-28T20:08:55.370Z,90.50
2022-11-28T20:13:09.797Z,90.60
2022-11-28T20:17:24.119Z,90.70
2022-11-28T20:21:37.938Z,90.70
2022-11-28T20:25:53.149Z,90.80
2022-11-28T20:30:08.934Z,90.90
2022-11-28T20:34:23.400Z,91.00
2022-11-28T20:38:47.301Z,91.10
2022-11-28T20:43:02.656Z,91.20
2022-11-28T20:47:16.519Z,91.20
2022-11-28T20:51:35.392Z,91.30
2022-11-28T20:55:49.170Z,91.40
2022-11-28T21:00:04.947Z,91.40
2022-11-28T21:04:19.842Z,91.40
2022-11-28T21:08:33.868Z,91.50
2022-11-28T21:12:48.038Z,91.60
2022-11-28T21:17:03.207Z,91.70
2022-11-28T21:21:18.890Z,91.70
2022-11-28T21:25:32.643Z,91.70
2022-11-28T21:29:46.578Z,91.70
2022-11-28T21:34:06.308Z,91.70
2022-11-28T21:38:20.074Z,91.70
2022-11-28T21:42:35.752Z,91.70
2022-11-28T21:46:51.252Z,91.70
2022-11-28T21:51:07.409Z,91.80
2022-11-28T21:55:21.233Z,91.90
2022-11-28T21:59:34.965Z,92.00
2022-11-28T22:03:49.877Z,92.10
2022-11-28T22:08:06.209Z,92.20
2022-11-28T22:12:20.430Z,92.40
2022-11-28T22:16:34.477Z,92.50
2022-11-28T22:20:52.854Z,92.50
2022-11-28T22:25:09.568Z,92.60
2022-11-28T22:29:23.871Z,92.60
2022-11-28T22:33:38.925Z,92.70
2022-11-28T22:37:56.689Z,92.70
2022-11-28T22:42:11.980Z,92.80
2022-11-28T22:46:26.260Z,92.80
2022-11-28T22:50:41.600Z,93.00
2022-11-28T22:54:55.768Z,93.10
2022-11-28T22:59:16.280Z,93.20
2022-11-28T23:03:30.934Z,93.40
2022-11-28T23:07:44.840Z,93.50
2022-11-28T23:12:01.258Z,93.80
2022-11-28T23:16:19.175Z,94.10
2022-11-28T23:20:33.403Z,94.40
2022-11-28T23:24:47.739Z,94.70
2022-11-28T23:29:03.626Z,95.00
2022-11-28T23:33:18.975Z,95.30
2022-11-28T23:37:33.262Z,95.50
2022-11-28T23:41:48.066Z,95.80
2022-11-28T23:46:01.981Z,96.00
2022-11-28T23:50:18.456Z,96.20
2022-11-28T23:54:32.586Z,96.40
2022-11-28T23:58:47.480Z,96.60
